»·PEaware :: SWA280 KBUR-KSJC

SWA280 :: KBUR-KSJC

FLIGHT INFORMATION

Flight Status: Arrived
Operator:
Southwest Airlines
More flights by this operator :: More flights under this callsign
Pilot: Ion I. (24133)
Aircraft: BOEING 737-800
(B738)
More flights by this aircraft type
Origin: KBUR Bob Hope-Burbank
United States
Destination: KSJC Mineta San Jose Intl
United States
More flights between these airports :: More routes between these airports
Route: OROSZ2 COREZ MAKRS TROXX SILCN4
File this flight plan on PilotEdge
Remarks:
Altitude:
(Current/Filed)
34,000ft
Speed:
(Current/Filed)
460kts
Departed: 14-Jan-21 02:34 PM
Arrived: 14-Jan-21 03:26 PM
Distance/Time
Traveled:
257nm/0:52
Distance/Time
To Go:
Arrived

Flight Plot

Page will automatically refresh every two minutes.

Flight plan parsing failed; only flown route is shown


Map Options




Map Legend


Flown Route
Filed Route
Departure Airport
Arrival Airport
Navaid (VOR, NDB)
Fix

Horizontal Profiles

Position Reports

Time Latitude Longitude Heading Altitude Ground
Speed
14-Jan-21 14:04 34.196602 -118.349313 180 729ft 0kts
14-Jan-21 14:05 34.196602 -118.349313 180 729ft 0kts
14-Jan-21 14:06 34.196602 -118.349313 180 729ft 0kts
14-Jan-21 14:07 34.196602 -118.349313 180 729ft 0kts
14-Jan-21 14:08 34.196602 -118.349313 180 729ft 0kts
14-Jan-21 14:09 34.196602 -118.349313 180 729ft 0kts
14-Jan-21 14:10 34.196602 -118.349313 180 729ft 0kts
14-Jan-21 14:11 34.196602 -118.349313 180 729ft 0kts
14-Jan-21 14:12 34.196602 -118.349313 180 729ft 0kts
14-Jan-21 14:13 34.196602 -118.349313 180 729ft 0kts
14-Jan-21 14:14 34.196602 -118.349313 180 729ft 0kts
14-Jan-21 14:15 34.196602 -118.349313 180 729ft 0kts
14-Jan-21 14:16 34.196602 -118.349313 180 729ft 0kts
14-Jan-21 14:17 34.196602 -118.349313 180 729ft 0kts
14-Jan-21 14:18 34.196602 -118.349313 180 729ft 0kts
14-Jan-21 14:19 34.196602 -118.349313 180 729ft 0kts
14-Jan-21 14:20 34.196602 -118.349313 180 729ft 0kts
14-Jan-21 14:21 34.196602 -118.349313 180 729ft 0kts
14-Jan-21 14:22 34.196602 -118.349313 180 729ft 0kts
14-Jan-21 14:23 34.196629 -118.349312 180 729ft 1kts
14-Jan-21 14:24 34.197081 -118.349306 180 729ft 0kts
14-Jan-21 14:25 34.197081 -118.349306 180 729ft 0kts
14-Jan-21 14:26 34.197081 -118.349306 180 729ft 0kts
14-Jan-21 14:27 34.197081 -118.349306 180 729ft 0kts
14-Jan-21 14:28 34.197063 -118.349793 290 729ft 0kts
14-Jan-21 14:29 34.198763 -118.350933 270 729ft 19kts
14-Jan-21 14:30 34.200298 -118.355771 347 729ft 19kts
14-Jan-21 14:31 34.206504 -118.357472 347 729ft 26kts
14-Jan-21 14:32 34.211173 -118.358767 347 729ft 12kts
14-Jan-21 14:33 34.210662 -118.359988 166 729ft 41kts
14-Jan-21 14:34 34.174074 -118.354321 199 1886ft 179kts
14-Jan-21 14:35 34.127244 -118.400509 221 3880ft 255kts
14-Jan-21 14:36 34.070058 -118.462598 221 5196ft 282kts
14-Jan-21 14:37 34.035580 -118.536865 281 8298ft 294kts
14-Jan-21 14:38 34.095958 -118.591721 352 11324ft 301kts
14-Jan-21 14:39 34.188195 -118.609358 351 12886ft 360kts
14-Jan-21 14:40 34.287944 -118.628641 351 15010ft 365kts
14-Jan-21 14:41 34.388914 -118.654165 340 17754ft 378kts
14-Jan-21 14:42 34.484502 -118.714743 329 20122ft 396kts
14-Jan-21 14:43 34.581469 -118.783526 329 22248ft 412kts
14-Jan-21 14:44 34.675034 -118.849936 329 24005ft 425kts
14-Jan-21 14:45 34.778528 -118.923228 329 25863ft 435kts
14-Jan-21 14:46 34.871151 -118.989411 329 27322ft 444kts
14-Jan-21 14:47 34.970647 -119.060641 330 28720ft 452kts
14-Jan-21 14:48 35.079278 -119.138653 330 30477ft 450kts
14-Jan-21 14:49 35.185780 -119.215416 330 32430ft 440kts
14-Jan-21 14:50 35.290722 -119.290993 330 34192ft 432kts
14-Jan-21 14:51 35.394883 -119.366106 329 34359ft 433kts
14-Jan-21 14:52 35.498244 -119.441304 329 34355ft 430kts
14-Jan-21 14:53 35.567385 -119.556035 285 34356ft 438kts
14-Jan-21 14:54 35.589386 -119.703222 282 34349ft 438kts
14-Jan-21 14:55 35.610878 -119.851213 282 34339ft 438kts
14-Jan-21 14:56 35.631224 -119.986062 282 34328ft 438kts
14-Jan-21 14:57 35.651997 -120.128194 282 34304ft 438kts
14-Jan-21 14:58 35.672004 -120.268394 282 34302ft 438kts
14-Jan-21 14:59 35.715519 -120.405966 303 34312ft 432kts
14-Jan-21 15:00 35.781072 -120.529957 304 33997ft 433kts
14-Jan-21 15:01 35.841971 -120.644963 305 33076ft 436kts
14-Jan-21 15:02 35.908300 -120.770210 304 31213ft 436kts
14-Jan-21 15:03 35.972977 -120.893927 303 28971ft 423kts
14-Jan-21 15:04 36.048508 -120.998803 320 27244ft 400kts
14-Jan-21 15:05 36.135416 -121.081884 322 25191ft 389kts
14-Jan-21 15:06 36.219782 -121.162399 322 23190ft 376kts
14-Jan-21 15:07 36.294930 -121.234485 322 21383ft 366kts
14-Jan-21 15:08 36.374314 -121.310575 322 19710ft 353kts
14-Jan-21 15:09 36.450943 -121.384490 322 17415ft 348kts
14-Jan-21 15:10 36.532756 -121.445758 339 15408ft 335kts
14-Jan-21 15:11 36.617323 -121.480773 341 13559ft 317kts
14-Jan-21 15:12 36.698636 -121.515132 340 11774ft 305kts
14-Jan-21 15:14 36.778595 -121.548980 341 10317ft 300kts
14-Jan-21 15:15 36.853204 -121.580741 340 9194ft 279kts
14-Jan-21 15:16 36.924717 -121.611238 341 8061ft 267kts
14-Jan-21 15:17 36.994738 -121.640907 341 6983ft 265kts
14-Jan-21 15:18 37.062543 -121.669727 342 5980ft 256kts
14-Jan-21 15:19 37.125712 -121.696619 342 4977ft 231kts
14-Jan-21 15:20 37.183251 -121.732732 320 4034ft 247kts
14-Jan-21 15:21 37.230239 -121.785168 321 3221ft 198kts
14-Jan-21 15:22 37.267745 -121.826034 323 2364ft 164kts
14-Jan-21 15:23 37.299842 -121.861004 321 1513ft 146kts
14-Jan-21 15:24 37.331019 -121.895014 320 776ft 146kts
14-Jan-21 15:25 37.360494 -121.927502 319 64ft 124kts
14-Jan-21 15:26 37.367887 -121.933278 47 64ft 11kts
14-Jan-21 15:27 37.368915 -121.931813 49 64ft 0kts
14-Jan-21 15:28 37.367522 -121.929271 140 64ft 0kts
14-Jan-21 15:28 37.365245 -121.926919 139 64ft 13kts
14-Jan-21 15:30 37.365216 -121.925707 49 64ft 0kts
14-Jan-21 15:31 37.365216 -121.925707 49 64ft 0kts

Navigation Log

Ident Type
Flight plan parsing failed, navigation log unavailable